Time;durP1;ratioP1;P1;durP2;ratioP2;P2;SDS_P1;SDS_P2;PMS_P1;PMS_P2;Temp;Humidity;BMP_temperature;BMP_pressure;BME280_temperature;BME280_humidity;BME280_pressure;Samples;Min_cycle;Max_cycle;Signal;HPM_P1;HPM_P2
2022/12/27 00:01:22;;;;;;;8.50;1.70;;;;;;;3.42;89.77;99200.73;105807;1294;72173;-68
2022/12/27 00:04:10;;;;;;;8.10;1.60;;;;;;;3.34;89.27;99206.43;105803;1293;68870;-67
2022/12/27 00:06:58;;;;;;;10.00;1.90;;;;;;;3.30;89.70;99207.55;105687;1294;72689;-67
2022/12/27 00:09:46;;;;;;;8.00;1.50;;;;;;;3.26;90.00;99207.28;105724;1286;57981;-67
2022/12/27 00:12:33;;;;;;;8.60;1.50;;;;;;;3.19;90.27;99208.77;105729;1294;60470;-67
2022/12/27 00:15:21;;;;;;;9.20;1.60;;;;;;;3.12;90.53;99209.35;105805;1294;72774;-68
2022/12/27 00:18:09;;;;;;;8.70;1.60;;;;;;;3.08;91.06;99208.77;105719;1302;67605;-67
2022/12/27 00:21:01;;;;;;;10.10;2.00;;;;;;;3.01;91.30;99211.58;105803;1287;73459;-66
2022/12/27 00:23:53;;;;;;;10.30;1.80;;;;;;;2.97;91.34;99212.73;104984;1294;1002245;-69
2022/12/27 00:26:42;;;;;;;7.60;1.70;;;;;;;2.91;91.51;99220.77;105680;1287;58608;-67
2022/12/27 00:29:29;;;;;;;9.70;1.70;;;;;;;2.88;91.83;99228.64;105823;1294;72325;-68
2022/12/27 00:32:17;;;;;;;10.50;2.00;;;;;;;2.84;91.84;99232.55;105783;1294;68813;-67
2022/12/27 00:35:05;;;;;;;7.10;1.40;;;;;;;2.82;91.74;99239.02;105793;1290;70180;-67
2022/12/27 00:37:53;;;;;;;8.80;1.60;;;;;;;2.80;91.83;99240.53;105878;1287;58159;-66
2022/12/27 00:40:41;;;;;;;10.90;2.00;;;;;;;2.79;91.60;99256.89;105918;1294;60033;-68
2022/12/27 00:43:29;;;;;;;9.60;1.70;;;;;;;2.78;91.96;99269.34;105834;1290;73584;-67
2022/12/27 00:46:17;;;;;;;9.00;1.60;;;;;;;2.77;92.25;99283.64;105708;1294;67736;-68
2022/12/27 00:49:05;;;;;;;15.10;2.40;;;;;;;2.78;92.29;99292.73;105694;1295;72392;-68
2022/12/27 00:51:53;;;;;;;13.30;2.20;;;;;;;2.78;92.37;99299.30;105788;1290;60039;-66
2022/12/27 00:54:41;;;;;;;18.30;3.00;;;;;;;2.80;92.36;99302.52;105814;1295;60041;-68
2022/12/27 00:57:29;;;;;;;9.80;1.60;;;;;;;2.85;92.60;99304.55;105795;1294;74840;-68
2022/12/27 01:00:17;;;;;;;10.20;1.80;;;;;;;2.88;92.52;99319.24;105810;1290;67836;-67
2022/12/27 01:03:05;;;;;;;11.20;2.00;;;;;;;2.92;92.64;99319.04;105801;1295;73507;-67
2022/12/27 01:05:53;;;;;;;10.80;1.80;;;;;;;2.95;92.75;99321.50;105816;1290;58438;-67
2022/12/27 01:08:41;;;;;;;11.80;2.30;;;;;;;2.95;92.52;99329.01;105797;1287;58124;-68
2022/12/27 01:11:29;;;;;;;11.60;2.30;;;;;;;2.97;92.87;99328.23;105814;1297;74859;-67
2022/12/27 01:14:17;;;;;;;14.10;2.10;;;;;;;2.98;92.69;99328.15;105719;1301;68685;-68
2022/12/27 01:17:05;;;;;;;10.70;1.80;;;;;;;2.99;92.92;99321.09;105811;1295;73661;-67
2022/12/27 01:19:53;;;;;;;9.20;2.00;;;;;;;2.99;92.95;99320.89;105704;1293;58080;-67
2022/12/27 01:22:41;;;;;;;12.20;1.70;;;;;;;2.96;92.97;99320.73;105713;1294;61403;-68
2022/12/27 01:25:29;;;;;;;12.40;1.80;;;;;;;2.94;93.07;99321.89;105816;1295;74260;-67
2022/12/27 01:28:17;;;;;;;9.50;2.00;;;;;;;2.94;93.28;99324.37;105833;1294;67906;-66
2022/12/27 01:31:09;;;;;;;12.80;1.80;;;;;;;2.91;93.42;99326.12;105696;1295;73527;-66
2022/12/27 01:33:59;;;;;;;10.70;2.10;;;;;;;2.90;93.41;99330.02;105804;1290;57964;-67
2022/12/27 01:36:47;;;;;;;11.70;2.20;;;;;;;2.88;93.53;99330.98;105817;1295;61205;-68
2022/12/27 01:39:34;;;;;;;13.20;2.40;;;;;;;2.87;93.64;99335.05;105817;1291;73649;-67
2022/12/27 01:45:34;;;;;;;11.50;2.00;;;;;;;2.86;93.93;99341.43;105629;1295;71021;-66
2022/12/27 01:48:24;;;;;;;12.50;2.40;;;;;;;2.87;94.05;99339.66;105701;1295;58779;-67
2022/12/27 01:51:12;;;;;;;10.10;1.90;;;;;;;2.90;94.18;99341.56;105793;1290;61357;-66
2022/12/27 01:54:00;;;;;;;10.60;2.40;;;;;;;2.92;94.22;99346.89;105796;1293;72396;-66
2022/12/27 01:56:48;;;;;;;22.80;2.50;;;;;;;2.94;94.15;99347.85;105821;1285;66203;-66
2022/12/27 01:59:37;;;;;;;14.10;2.30;;;;;;;2.95;94.19;99348.85;105722;1295;71384;-67
2022/12/27 02:02:25;;;;;;;14.60;2.60;;;;;;;2.95;94.18;99348.13;105807;1290;58133;-67
2022/12/27 02:05:17;;;;;;;12.30;2.30;;;;;;;2.94;94.28;99351.53;105818;1290;61262;-67
2022/12/27 02:08:41;;;;;;;14.10;2.40;;;;;;;2.92;94.07;99359.49;105716;1294;75108;-66
2022/12/27 02:11:52;;;;;;;15.80;2.30;;;;;;;2.96;94.21;99358.60;105775;1290;67815;-67
2022/12/27 02:14:48;;;;;;;12.80;1.90;;;;;;;2.95;94.15;99349.33;105805;1295;71412;-66
2022/12/27 02:17:36;;;;;;;12.40;2.10;;;;;;;3.00;93.80;99356.41;105709;1296;58229;-67
2022/12/27 02:20:25;;;;;;;12.00;2.10;;;;;;;3.04;93.84;99353.23;105748;1293;61173;-67
2022/12/27 02:24:05;;;;;;;12.90;2.20;;;;;;;3.08;93.22;99355.43;105847;1293;73550;-67
2022/12/27 02:27:25;;;;;;;9.80;2.00;;;;;;;3.13;93.35;99363.73;105816;1290;67902;-67
2022/12/27 02:30:14;;;;;;;9.70;2.00;;;;;;;3.17;92.99;99361.44;105169;1299;71324;-66
2022/12/27 02:33:15;;;;;;;12.90;2.50;;;;;;;3.20;92.90;99363.69;104987;1308;58245;-67
2022/12/27 02:36:09;;;;;;;10.50;2.10;;;;;;;3.22;92.70;99368.80;104963;1306;60330;-66
2022/12/27 02:39:00;;;;;;;12.10;2.60;;;;;;;3.23;92.48;99373.29;105078;1302;73640;-66
2022/12/27 02:55:26;;;;;;;12.20;2.40;;;;;;;3.22;92.60;99386.70;105125;1300;73878;-68
2022/12/27 02:58:33;;;;;;;14.10;2.30;;;;;;;3.21;92.35;99388.52;105080;1306;68963;-67
2022/12/27 03:05:29;;;;;;;14.20;2.10;;;;;;;3.16;92.49;99393.35;105187;1300;58210;-68
2022/12/27 03:08:32;;;;;;;12.20;2.00;;;;;;;3.15;92.43;99399.05;105682;1294;57970;-67
2022/12/27 03:18:09;;;;;;;11.70;2.40;;;;;;;3.19;92.17;99408.27;105501;1295;74021;-67
2022/12/27 03:27:32;;;;;;;9.70;1.80;;;;;;;3.18;92.25;99420.23;105630;1298;73941;-68
2022/12/27 03:33:29;;;;;;;9.80;2.50;;;;;;;3.19;92.13;99422.27;105693;1293;71358;-67
2022/12/27 03:39:35;;;;;;;20.10;2.00;;;;;;;3.20;91.67;99423.08;105715;1283;60045;-67
2022/12/27 03:49:37;;;;;;;13.70;2.30;;;;;;;3.23;91.86;99409.08;105653;1294;72648;-67
2022/12/27 03:52:48;;;;;;;11.50;1.90;;;;;;;3.19;91.23;99404.44;105731;1293;57993;-69
2022/12/27 03:55:37;;;;;;;11.00;2.10;;;;;;;3.17;91.38;99419.98;105659;1293;57998;-67
2022/12/27 03:58:25;;;;;;;13.80;2.30;;;;;;;3.12;91.38;99419.40;105622;1296;72601;-67
2022/12/27 04:01:13;;;;;;;14.20;2.40;;;;;;;3.10;91.58;99426.15;105727;1295;66451;-66
2022/12/27 04:04:01;;;;;;;14.10;2.40;;;;;;;3.08;91.72;99426.92;105725;1294;72377;-67
2022/12/27 04:06:49;;;;;;;14.60;1.80;;;;;;;3.09;91.95;99433.39;105701;1294;57984;-67
2022/12/27 04:34:42;;;;;;;9.50;1.70;;;;;;;3.07;92.49;99463.30;105697;1295;70523;-67
2022/12/27 04:37:30;;;;;;;17.20;2.60;;;;;;;3.08;92.70;99463.58;105697;1301;58530;-66
2022/12/27 04:56:07;;;;;;;12.70;2.20;;;;;;;3.12;92.66;99473.91;105728;1292;59833;-67
2022/12/27 05:02:02;;;;;;;13.20;2.30;;;;;;;3.14;92.63;99474.11;105807;1293;69233;-68
2022/12/27 05:04:50;;;;;;;12.10;2.30;;;;;;;3.13;92.52;99476.10;105706;1295;73746;-68
2022/12/27 05:13:58;;;;;;;8.80;2.20;;;;;;;3.07;92.62;99488.02;105798;1286;74867;-66
2022/12/27 05:16:46;;;;;;;10.00;2.00;;;;;;;3.05;92.36;99487.08;105790;1294;66206;-67
2022/12/27 05:19:34;;;;;;;15.50;2.20;;;;;;;3.04;92.28;99489.41;105713;1294;71557;-67
2022/12/27 05:25:34;;;;;;;11.00;2.50;;;;;;;2.99;91.95;99487.05;105821;1286;58739;-68
2022/12/27 05:28:22;;;;;;;11.30;2.10;;;;;;;2.96;92.15;99494.95;105798;1290;73978;-66
2022/12/27 05:31:10;;;;;;;10.70;2.10;;;;;;;2.95;92.30;99505.66;105784;1302;68716;-66
2022/12/27 05:33:58;;;;;;;7.60;1.80;;;;;;;2.97;92.51;99508.70;105743;1285;72567;-69
2022/12/27 05:36:46;;;;;;;10.50;1.60;;;;;;;2.98;92.30;99510.23;105728;1292;59142;-67
2022/12/27 05:39:34;;;;;;;11.30;1.80;;;;;;;2.97;92.37;99513.44;105774;1290;61162;-70
2022/12/27 05:42:22;;;;;;;13.10;2.30;;;;;;;2.96;92.45;99518.80;105762;1292;71993;-69
2022/12/27 05:45:11;;;;;;;28.90;2.80;;;;;;;2.96;92.81;99513.67;105817;1294;68180;-69
2022/12/27 05:47:59;;;;;;;10.30;2.00;;;;;;;2.97;92.74;99516.08;105659;1294;73877;-68
2022/12/27 05:50:48;;;;;;;10.10;1.90;;;;;;;2.96;92.61;99516.99;105666;1290;164563;-68
2022/12/27 05:53:36;;;;;;;9.50;1.80;;;;;;;2.96;92.91;99515.77;105683;1295;61402;-67
2022/12/27 05:56:23;;;;;;;10.90;2.30;;;;;;;2.94;93.56;99515.38;105795;1290;74093;-68
2022/12/27 05:59:12;;;;;;;11.20;2.10;;;;;;;2.90;93.94;99510.16;105777;1290;68802;-68
2022/12/27 06:02:00;;;;;;;8.40;2.00;;;;;;;2.85;94.54;99506.54;105768;1294;73065;-68
2022/12/27 06:04:48;;;;;;;11.20;2.10;;;;;;;2.80;95.47;99513.00;105779;1294;59638;-69
2022/12/27 06:07:37;;;;;;;8.90;2.00;;;;;;;2.73;96.10;99518.23;105794;1285;58724;-65
2022/12/27 06:10:25;;;;;;;9.50;1.60;;;;;;;2.68;96.30;99519.22;105791;1290;72507;-70
2022/12/27 06:13:13;;;;;;;8.50;1.60;;;;;;;2.65;96.56;99525.52;105812;1290;65325;-69
2022/12/27 06:16:04;;;;;;;13.00;2.30;;;;;;;2.60;97.13;99525.77;105776;1294;73906;-68
2022/12/27 06:18:52;;;;;;;11.10;2.00;;;;;;;2.57;97.34;99528.36;105794;1287;58687;-72
2022/12/27 06:21:40;;;;;;;13.90;2.10;;;;;;;2.55;97.64;99528.27;105811;1294;60286;-69
2022/12/27 06:24:28;;;;;;;9.20;1.70;;;;;;;2.56;97.60;99530.01;105773;1293;72791;-67
2022/12/27 06:27:16;;;;;;;10.30;1.80;;;;;;;2.58;97.63;99532.55;105793;1294;67772;-71
2022/12/27 06:30:06;;;;;;;8.90;1.80;;;;;;;2.56;97.77;99535.98;105768;1286;70397;-67
2022/12/27 06:32:54;;;;;;;10.60;2.20;;;;;;;2.55;97.71;99542.50;105792;1294;58515;-68
2022/12/27 06:35:42;;;;;;;14.00;2.90;;;;;;;2.54;97.72;99544.83;105772;1292;60096;-67
2022/12/27 06:38:29;;;;;;;14.20;2.70;;;;;;;2.51;97.53;99547.77;105772;1293;72541;-67
2022/12/27 06:41:18;;;;;;;9.10;1.90;;;;;;;2.54;97.54;99558.14;105742;1293;69055;-68
2022/12/27 06:44:06;;;;;;;11.40;2.00;;;;;;;2.54;97.71;99560.95;105811;1295;71630;-69
2022/12/27 06:46:54;;;;;;;7.70;1.80;;;;;;;2.54;97.71;99565.14;105802;1294;58486;-68
2022/12/27 06:49:42;;;;;;;12.00;2.30;;;;;;;2.53;97.56;99573.79;105704;1288;58091;-70
2022/12/27 06:52:30;;;;;;;10.40;2.10;;;;;;;2.53;97.63;99574.14;105789;1286;72576;-70
2022/12/27 06:55:18;;;;;;;12.10;2.70;;;;;;;2.50;97.59;99570.98;105657;1294;68982;-71
2022/12/27 06:58:06;;;;;;;12.90;2.10;;;;;;;2.49;97.77;99572.40;105779;1297;73673;-70
2022/12/27 07:00:53;;;;;;;13.90;2.70;;;;;;;2.49;96.99;99574.66;105821;1286;58069;-71
2022/12/27 07:03:42;;;;;;;14.60;2.20;;;;;;;2.52;96.71;99578.91;105802;1291;60038;-67
2022/12/27 07:06:31;;;;;;;12.70;2.40;;;;;;;2.54;96.41;99585.65;105683;1292;73717;-69
2022/12/27 07:09:18;;;;;;;7.80;1.60;;;;;;;2.52;95.91;99586.41;104927;1293;1002531;-70
2022/12/27 07:12:07;;;;;;;11.70;2.50;;;;;;;2.50;95.26;99594.93;105772;1287;71433;-67
2022/12/27 07:14:54;;;;;;;13.60;2.20;;;;;;;2.51;95.38;99593.66;105505;1290;58466;-68
2022/12/27 07:17:42;;;;;;;14.20;2.40;;;;;;;2.52;95.10;99595.00;105812;1294;60026;-70
2022/12/27 07:20:30;;;;;;;14.80;2.40;;;;;;;2.51;94.24;99596.30;105700;1281;73798;-69
2022/12/27 07:23:18;;;;;;;11.90;3.00;;;;;;;2.51;93.85;99601.05;105780;1277;67155;-68
2022/12/27 07:26:16;;;;;;;17.20;2.40;;;;;;;2.50;93.75;99600.91;105781;1293;73946;-68
2022/12/27 07:29:03;;;;;;;13.20;2.30;;;;;;;2.47;93.17;99602.30;104863;1294;1002430;-68
2022/12/27 07:31:51;;;;;;;13.50;2.60;;;;;;;2.47;93.16;99599.48;105804;1286;58742;-68
2022/12/27 07:34:39;;;;;;;9.60;2.00;;;;;;;2.46;92.99;99603.23;105773;1292;72033;-67
2022/12/27 07:37:27;;;;;;;13.00;2.50;;;;;;;2.44;92.99;99595.63;105816;1293;67576;-67
2022/12/27 07:40:15;;;;;;;10.20;2.40;;;;;;;2.44;93.07;99597.20;105778;1287;72622;-67
2022/12/27 07:43:04;;;;;;;12.00;2.40;;;;;;;2.44;93.12;99605.23;105798;1293;59737;-68
2022/12/27 07:45:52;;;;;;;11.30;2.90;;;;;;;2.46;93.14;99602.33;105682;1287;58783;-68
2022/12/27 07:48:42;;;;;;;11.80;2.30;;;;;;;2.49;93.06;99606.56;105763;1294;74160;-69
2022/12/27 07:51:29;;;;;;;14.90;2.60;;;;;;;2.52;93.06;99612.19;105784;1291;66367;-67
2022/12/27 07:54:18;;;;;;;12.50;2.40;;;;;;;2.52;92.67;99613.21;105754;1294;73940;-71
2022/12/27 07:57:06;;;;;;;6.60;1.90;;;;;;;2.56;92.36;99616.01;105780;1287;59589;-69
2022/12/27 07:59:54;;;;;;;11.40;3.00;;;;;;;2.56;91.62;99628.62;105793;1287;61372;-70
2022/12/27 08:02:42;;;;;;;7.40;2.10;;;;;;;2.57;91.74;99621.20;105710;1287;73698;-71
2022/12/27 08:05:32;;;;;;;13.20;2.30;;;;;;;2.55;91.48;99625.14;105797;1287;67875;-70
2022/12/27 08:08:24;;;;;;;12.70;2.50;;;;;;;2.57;91.86;99627.71;105782;1294;72675;-71
2022/12/27 08:11:12;;;;;;;12.20;2.80;;;;;;;2.54;91.60;99623.62;105791;1286;58943;-71
2022/12/27 08:14:00;;;;;;;12.40;2.60;;;;;;;2.54;91.96;99624.15;105779;1294;60257;-69
2022/12/27 08:16:49;;;;;;;10.50;2.70;;;;;;;2.57;92.01;99626.83;105786;1300;74943;-69
2022/12/27 08:19:37;;;;;;;8.00;2.20;;;;;;;2.57;92.21;99635.23;105791;1286;67601;-70
2022/12/27 08:22:25;;;;;;;12.40;2.80;;;;;;;2.56;92.19;99631.96;105744;1293;71060;-70
2022/12/27 08:25:13;;;;;;;10.60;3.00;;;;;;;2.56;92.15;99631.23;105793;1285;58040;-70
2022/12/27 08:28:07;;;;;;;11.30;2.30;;;;;;;2.55;91.74;99640.22;105792;1292;60132;-69
2022/12/27 08:30:56;;;;;;;9.90;2.60;;;;;;;2.55;91.61;99632.86;105672;1294;73637;-70
2022/12/27 08:33:44;;;;;;;12.00;2.50;;;;;;;2.55;91.14;99635.84;105800;1294;67544;-68
2022/12/27 08:36:31;;;;;;;11.50;3.20;;;;;;;2.57;91.35;99634.70;105768;1287;72680;-70
2022/12/27 08:39:40;;;;;;;12.60;2.80;;;;;;;2.56;90.59;99642.27;105788;1294;58013;-70
2022/12/27 08:42:27;;;;;;;11.70;2.40;;;;;;;2.56;90.21;99649.98;105802;1287;60518;-68
2022/12/27 08:45:15;;;;;;;10.50;2.40;;;;;;;2.57;90.28;99646.98;105067;1285;1002467;-69
2022/12/27 08:48:04;;;;;;;11.00;2.70;;;;;;;2.57;90.13;99642.21;105789;1293;67604;-69
2022/12/27 08:50:52;;;;;;;12.90;2.70;;;;;;;2.57;90.07;99652.58;105775;1294;71058;-69
2022/12/27 08:53:40;;;;;;;11.70;3.00;;;;;;;2.58;89.95;99653.60;105801;1293;58161;-73
2022/12/27 08:56:28;;;;;;;12.80;3.30;;;;;;;2.57;89.98;99655.90;105802;1287;59220;-69
2022/12/27 08:59:16;;;;;;;14.90;3.10;;;;;;;2.61;90.31;99652.55;105668;1293;73895;-73
2022/12/27 09:02:04;;;;;;;13.50;3.00;;;;;;;2.61;90.03;99653.09;105685;1294;66470;-70
2022/12/27 09:04:52;;;;;;;13.70;3.80;;;;;;;2.60;90.03;99649.77;105698;1286;70128;-70
2022/12/27 09:07:40;;;;;;;10.90;3.40;;;;;;;2.59;89.96;99648.29;105673;1288;58452;-71
2022/12/27 09:10:28;;;;;;;12.40;4.20;;;;;;;2.56;89.73;99653.31;105786;1293;58740;-69
2022/12/27 09:13:16;;;;;;;9.70;3.10;;;;;;;2.54;89.84;99660.10;105797;1291;72650;-72
2022/12/27 09:16:10;;;;;;;12.10;3.50;;;;;;;2.51;90.08;99661.95;105776;1291;66640;-71
2022/12/27 09:18:59;;;;;;;10.80;2.60;;;;;;;2.52;90.03;99662.08;105655;1294;72691;-71
2022/12/27 09:21:47;;;;;;;11.10;2.70;;;;;;;2.52;90.31;99663.86;105782;1290;58165;-67
2022/12/27 09:24:35;;;;;;;13.10;3.20;;;;;;;2.51;89.92;99665.30;105710;1284;60160;-72
2022/12/27 09:27:23;;;;;;;11.10;3.00;;;;;;;2.48;89.83;99665.98;105818;1293;73777;-70
2022/12/27 09:30:11;;;;;;;9.40;2.80;;;;;;;2.49;90.15;99662.95;105829;1294;67954;-71
2022/12/27 09:32:59;;;;;;;8.90;2.50;;;;;;;2.51;90.25;99662.14;105819;1292;70319;-71
2022/12/27 09:35:47;;;;;;;13.60;3.40;;;;;;;2.49;90.07;99667.50;105784;1294;58113;-70
2022/12/27 09:38:36;;;;;;;11.20;3.10;;;;;;;2.49;90.14;99670.10;105693;1294;58384;-71
2022/12/27 09:41:54;;;;;;;11.40;2.90;;;;;;;2.48;89.92;99676.50;105691;1293;73920;-72
2022/12/27 09:45:19;;;;;;;9.40;2.70;;;;;;;2.46;89.68;99669.39;105773;1293;68881;-73
2022/12/27 09:48:21;;;;;;;11.10;2.80;;;;;;;2.46;89.60;99669.06;105783;1294;71519;-71
2022/12/27 09:51:30;;;;;;;10.00;3.00;;;;;;;2.48;89.86;99671.06;105682;1291;58021;-69
2022/12/27 09:54:37;;;;;;;8.90;2.70;;;;;;;2.46;89.83;99657.34;105800;1287;60180;-70
2022/12/27 09:57:43;;;;;;;13.30;3.00;;;;;;;2.45;89.95;99663.31;105537;1297;72724;-71
2022/12/27 10:00:31;;;;;;;10.10;2.90;;;;;;;2.45;90.18;99656.00;105695;1294;67765;-68
2022/12/27 10:03:28;;;;;;;10.90;3.10;;;;;;;2.45;90.02;99661.42;105790;1301;72448;-69
2022/12/27 10:06:31;;;;;;;8.70;2.70;;;;;;;2.46;89.64;99647.52;105621;1285;58068;-69
2022/12/27 10:10:14;;;;;;;8.90;2.50;;;;;;;2.47;89.47;99643.12;105784;1285;60408;-69
2022/12/27 10:13:23;;;;;;;9.60;2.40;;;;;;;2.47;88.99;99645.55;105583;1291;72472;-69
2022/12/27 10:16:15;;;;;;;7.70;3.00;;;;;;;2.51;88.53;99650.25;105787;1294;67671;-68
2022/12/27 10:19:37;;;;;;;12.20;2.60;;;;;;;2.53;87.62;99647.00;105707;1294;72875;-69
2022/12/27 10:22:39;;;;;;;12.90;3.20;;;;;;;2.52;87.66;99651.79;105785;1285;58079;-69
2022/12/27 10:25:29;;;;;;;10.90;2.80;;;;;;;2.58;87.73;99652.69;105671;1293;61737;-69
2022/12/27 10:28:27;;;;;;;9.00;2.70;;;;;;;2.60;88.26;99657.50;105778;1292;73769;-70
2022/12/27 10:31:18;;;;;;;9.30;2.40;;;;;;;2.60;88.56;99654.70;105627;1288;67920;-70
2022/12/27 10:34:12;;;;;;;7.40;2.30;;;;;;;2.55;88.94;99644.41;105526;1290;73848;-71
2022/12/27 10:37:01;;;;;;;8.80;2.80;;;;;;;2.52;89.25;99643.70;105588;1294;58057;-69
2022/12/27 10:39:49;;;;;;;7.90;2.50;;;;;;;2.48;89.43;99646.91;105632;1286;58754;-69
2022/12/27 10:42:44;;;;;;;11.20;2.50;;;;;;;2.42;89.38;99649.63;105764;1294;71409;-70
2022/12/27 10:45:38;;;;;;;9.20;2.50;;;;;;;2.40;89.26;99642.59;105611;1294;67695;-69
2022/12/27 10:48:29;;;;;;;11.30;3.10;;;;;;;2.42;89.30;99647.02;105631;1295;71297;-68
2022/12/27 10:51:41;;;;;;;7.50;2.60;;;;;;;2.45;89.10;99647.38;105801;1293;58012;-67
2022/12/27 10:54:29;;;;;;;10.80;3.50;;;;;;;2.50;89.50;99649.43;105636;1294;60050;-69
2022/12/27 10:57:31;;;;;;;12.60;4.30;;;;;;;2.52;89.57;99647.91;105703;1294;72626;-69
2022/12/27 11:00:21;;;;;;;11.60;3.20;;;;;;;2.54;89.73;99649.20;105039;1285;1003138;-68
2022/12/27 11:03:18;;;;;;;12.50;3.30;;;;;;;2.53;89.61;99647.13;105784;1285;71469;-70
2022/12/27 11:06:18;;;;;;;12.50;3.40;;;;;;;2.55;89.53;99646.73;105662;1288;58476;-70
2022/12/27 11:09:38;;;;;;;8.40;2.60;;;;;;;2.58;89.50;99644.13;105785;1294;60059;-69
2022/12/27 11:12:31;;;;;;;7.50;2.60;;;;;;;2.61;89.34;99640.81;105021;1295;73888;-68
2022/12/27 11:15:19;;;;;;;9.90;2.70;;;;;;;2.63;89.28;99644.36;105161;1300;67592;-69
2022/12/27 11:18:17;;;;;;;13.30;2.80;;;;;;;2.60;89.18;99646.98;104911;1292;72526;-70
2022/12/27 11:21:12;;;;;;;10.70;3.20;;;;;;;2.60;89.07;99647.52;105101;1300;58515;-71
2022/12/27 11:24:16;;;;;;;11.60;3.50;;;;;;;2.62;89.07;99652.13;105059;1308;60276;-71
2022/12/27 11:27:04;;;;;;;10.70;3.70;;;;;;;2.60;88.50;99645.38;105146;1301;72507;-68
2022/12/27 11:29:57;;;;;;;9.90;2.50;;;;;;;2.61;88.64;99649.05;105022;1300;68171;-75
2022/12/27 11:32:45;;;;;;;10.50;3.00;;;;;;;2.61;88.41;99640.30;105139;1301;72203;-72
2022/12/27 11:35:46;;;;;;;9.70;2.70;;;;;;;2.62;88.46;99640.75;105006;1303;58513;-71
2022/12/27 11:38:37;;;;;;;10.00;3.10;;;;;;;2.65;88.50;99645.13;105062;1303;59143;-69
2022/12/27 11:41:48;;;;;;;6.80;2.30;;;;;;;2.77;87.77;99642.98;105155;1299;72797;-70
2022/12/27 11:44:42;;;;;;;8.70;3.10;;;;;;;2.84;87.35;99634.87;105007;1307;68135;-71
2022/12/27 11:47:57;;;;;;;11.50;2.60;;;;;;;2.87;86.75;99633.83;105025;1303;71090;-68
2022/12/27 11:51:07;;;;;;;8.40;2.90;;;;;;;2.96;85.86;99636.67;105463;1294;59118;-72
2022/12/27 11:54:49;;;;;;;7.90;2.50;;;;;;;3.16;85.00;99641.06;105781;1293;60252;-69
2022/12/27 11:57:46;;;;;;;8.70;2.70;;;;;;;3.30;83.82;99641.02;105787;1287;72482;-72
2022/12/27 12:00:55;;;;;;;9.10;2.70;;;;;;;3.34;83.00;99644.70;105815;1294;65437;-67
2022/12/27 12:04:10;;;;;;;11.10;3.00;;;;;;;3.44;82.33;99643.63;105719;1294;72342;-70
2022/12/27 12:07:20;;;;;;;8.40;2.50;;;;;;;3.44;82.38;99643.09;105767;1285;58770;-70
2022/12/27 12:10:44;;;;;;;9.60;3.00;;;;;;;3.42;82.11;99643.73;105674;1287;61272;-72
2022/12/27 12:13:50;;;;;;;9.70;2.60;;;;;;;3.48;82.03;99650.72;105680;1288;75061;-70
2022/12/27 12:17:16;;;;;;;9.10;2.40;;;;;;;3.49;81.61;99653.69;105746;1290;68625;-71
2022/12/27 12:20:35;;;;;;;9.90;2.70;;;;;;;3.48;82.46;99659.70;105657;1287;71305;-67
2022/12/27 12:23:49;;;;;;;10.80;2.90;;;;;;;3.41;82.48;99651.11;105665;1295;58109;-74
2022/12/27 12:27:43;;;;;;;8.50;2.40;;;;;;;3.32;82.69;99650.57;105799;1294;60359;-71
2022/12/27 12:31:12;;;;;;;8.20;2.50;;;;;;;3.30;83.02;99654.54;105555;1294;72489;-69
2022/12/27 12:34:30;;;;;;;11.90;2.70;;;;;;;3.24;83.41;99663.42;105297;1290;66801;-72
2022/12/27 12:37:46;;;;;;;10.00;2.60;;;;;;;3.17;83.81;99665.91;105280;1300;71014;-69
2022/12/27 12:41:06;;;;;;;9.90;3.00;;;;;;;3.08;84.43;99668.14;105311;1291;58145;-72
2022/12/27 12:44:12;;;;;;;7.10;2.60;;;;;;;2.99;85.05;99666.15;105307;1298;60107;-70
2022/12/27 12:47:36;;;;;;;9.30;2.80;;;;;;;2.96;85.34;99667.73;105331;1301;75167;-72
2022/12/27 12:50:34;;;;;;;7.60;2.60;;;;;;;2.91;85.98;99668.16;105330;1300;68028;-72
2022/12/27 12:53:28;;;;;;;7.90;2.40;;;;;;;2.83;86.23;99663.31;105236;1292;72738;-71
2022/12/27 12:56:46;;;;;;;9.50;2.60;;;;;;;2.78;86.92;99653.44;105306;1298;58507;-66
2022/12/27 13:00:08;;;;;;;6.90;2.40;;;;;;;2.75;87.20;99664.27;105289;1296;58783;-70
2022/12/27 13:03:38;;;;;;;7.20;2.30;;;;;;;2.66;87.56;99678.54;105288;1299;73510;-71
2022/12/27 13:06:54;;;;;;;8.70;2.50;;;;;;;2.64;88.11;99679.51;105238;1298;69061;-68
2022/12/27 13:10:19;;;;;;;8.60;2.80;;;;;;;2.66;88.33;99684.88;105804;1290;72384;-69
2022/12/27 13:13:47;;;;;;;7.60;2.70;;;;;;;2.67;88.57;99690.92;105788;1294;58521;-72
2022/12/27 13:16:58;;;;;;;8.40;2.50;;;;;;;2.66;88.50;99695.52;105718;1294;58699;-70
2022/12/27 13:20:20;;;;;;;8.90;2.50;;;;;;;2.65;88.69;99704.19;105686;1293;73571;-72
2022/12/27 13:23:49;;;;;;;10.40;2.80;;;;;;;2.63;88.84;99707.59;105799;1294;66496;-69
2022/12/27 13:26:55;;;;;;;8.50;2.80;;;;;;;2.61;89.60;99723.98;105774;1294;72781;-71
2022/12/27 13:30:04;;;;;;;9.10;3.20;;;;;;;2.60;90.10;99728.80;105710;1295;58512;-69
2022/12/27 13:33:07;;;;;;;10.30;4.00;;;;;;;2.56;90.83;99734.23;105664;1297;60215;-70
2022/12/27 13:36:39;;;;;;;7.70;2.70;;;;;;;2.48;91.91;99749.16;105665;1294;72571;-67
2022/12/27 13:40:14;;;;;;;7.80;2.70;;;;;;;2.42;92.74;99763.45;105781;1285;67762;-68
2022/12/27 13:43:46;;;;;;;7.10;2.70;;;;;;;2.32;93.37;99776.36;105668;1294;72984;-68
2022/12/27 13:47:08;;;;;;;6.40;2.30;;;;;;;2.20;94.18;99789.88;105296;1307;57925;-68
2022/12/27 13:50:47;;;;;;;7.10;2.20;;;;;;;2.04;94.51;99791.67;105262;1300;58726;-71
2022/12/27 13:53:50;;;;;;;8.00;2.60;;;;;;;1.91;95.47;99798.61;104931;1294;73617;-70
2022/12/27 13:57:07;;;;;;;7.70;2.20;;;;;;;1.79;96.26;99800.38;105261;1297;67560;-69
2022/12/27 14:00:41;;;;;;;6.90;2.80;;;;;;;1.70;96.90;99805.30;105250;1300;72798;-70
2022/12/27 14:03:54;;;;;;;7.40;2.60;;;;;;;1.67;97.67;99818.03;104702;1299;58091;-68
2022/12/27 14:07:13;;;;;;;6.10;1.90;;;;;;;1.64;97.87;99828.00;104575;1306;59534;-69
2022/12/27 14:10:12;;;;;;;8.10;2.80;;;;;;;1.57;98.37;99830.75;104840;1307;72238;-69
2022/12/27 14:13:09;;;;;;;7.10;2.70;;;;;;;1.53;98.69;99831.98;104795;1302;68689;-70
2022/12/27 14:16:28;;;;;;;8.90;2.90;;;;;;;1.48;99.50;99839.52;104689;1303;72533;-69
2022/12/27 14:19:58;;;;;;;9.90;3.00;;;;;;;1.47;99.99;99842.34;105124;1300;58021;-70
2022/12/27 14:23:06;;;;;;;8.80;2.80;;;;;;;1.49;99.99;99844.56;105194;1292;58335;-71
2022/12/27 14:26:31;;;;;;;8.50;2.70;;;;;;;1.49;100.00;99848.05;105038;1296;73958;-69
2022/12/27 14:29:54;;;;;;;8.30;2.80;;;;;;;1.50;100.00;99857.98;105131;1308;66672;-70
2022/12/27 14:33:10;;;;;;;7.30;2.60;;;;;;;1.49;100.00;99859.91;105154;1300;74561;-68
2022/12/27 14:36:42;;;;;;;7.50;2.60;;;;;;;1.50;100.00;99860.96;105177;1300;58760;-68
2022/12/27 14:39:49;;;;;;;8.20;2.70;;;;;;;1.49;100.00;99871.98;105787;1285;58959;-70
2022/12/27 14:42:52;;;;;;;8.50;2.60;;;;;;;1.50;100.00;99877.02;105765;1295;75111;-71
2022/12/27 14:46:36;;;;;;;10.10;3.40;;;;;;;1.51;100.00;99873.49;105784;1294;67555;-70
2022/12/27 14:49:58;;;;;;;9.10;2.60;;;;;;;1.50;100.00;99878.60;105785;1294;72578;-69
2022/12/27 14:53:04;;;;;;;7.90;2.30;;;;;;;1.47;100.00;99893.27;105697;1294;58486;-70
2022/12/27 14:56:28;;;;;;;9.00;2.90;;;;;;;1.44;100.00;99891.63;105781;1287;58902;-70
2022/12/27 14:59:56;;;;;;;9.50;2.30;;;;;;;1.41;100.00;99897.71;105729;1290;72747;-71
2022/12/27 15:02:58;;;;;;;7.30;2.30;;;;;;;1.40;100.00;99900.69;105747;1295;66992;-69
2022/12/27 15:06:13;;;;;;;11.60;3.00;;;;;;;1.36;100.00;99902.96;105757;1290;72674;-70
2022/12/27 15:09:28;;;;;;;7.90;2.30;;;;;;;1.42;100.00;99919.15;105701;1294;59526;-70
2022/12/27 15:12:39;;;;;;;10.30;2.80;;;;;;;1.47;100.00;99925.59;105720;1294;60050;-68
2022/12/27 15:16:00;;;;;;;12.00;3.30;;;;;;;1.53;100.00;99927.45;105673;1293;73837;-71
2022/12/27 15:18:59;;;;;;;10.10;2.50;;;;;;;1.59;100.00;99939.07;105717;1294;66407;-69
2022/12/27 15:22:09;;;;;;;13.10;3.10;;;;;;;1.63;100.00;99940.80;105683;1295;73500;-68
2022/12/27 15:25:42;;;;;;;9.40;3.10;;;;;;;1.69;100.00;99947.59;105772;1287;57955;-68
2022/12/27 15:29:07;;;;;;;11.00;2.70;;;;;;;1.73;100.00;99958.95;105069;1303;60103;-69
2022/12/27 15:32:24;;;;;;;6.40;2.60;;;;;;;1.76;100.00;99953.39;105040;1302;72226;-70